sensor_id;sensor_type;location;lat;lon;timestamp;pressure;altitude;pressure_sealevel;temperature;humidity
3832;BME280;12460;42.662;23.288;2023-06-22T03:46:30;95007.72;;;24.95;48.95
3832;BME280;12460;42.662;23.288;2023-06-22T04:01:36;95005.25;;;25.42;47.63
3832;BME280;12460;42.662;23.288;2023-06-22T04:16:40;94996.97;;;25.70;46.51
3832;BME280;12460;42.662;23.288;2023-06-22T04:31:45;94984.13;;;25.73;46.45
3832;BME280;12460;42.662;23.288;2023-06-22T04:46:59;94990.03;;;26.99;43.61
3832;BME280;12460;42.662;23.288;2023-06-22T05:02:11;94991.41;;;28.66;41.21
3832;BME280;12460;42.662;23.288;2023-06-22T05:17:18;94994.94;;;30.13;38.02
3832;BME280;12460;42.662;23.288;2023-06-22T05:32:23;94990.97;;;31.53;35.68
3832;BME280;12460;42.662;23.288;2023-06-22T05:47:27;95023.59;;;32.50;34.15
3832;BME280;12460;42.662;23.288;2023-06-22T06:02:33;95022.66;;;32.93;33.72
3832;BME280;12460;42.662;23.288;2023-06-22T06:17:52;95001.19;;;33.36;33.23
3832;BME280;12460;42.662;23.288;2023-06-22T06:32:57;94999.47;;;34.01;32.13
3832;BME280;12460;42.662;23.288;2023-06-22T06:48:00;94977.56;;;34.02;32.45
3832;BME280;12460;42.662;23.288;2023-06-22T07:03:05;94969.19;;;35.47;30.57
3832;BME280;12460;42.662;23.288;2023-06-22T07:18:11;94982.31;;;37.48;28.46
3832;BME280;12460;42.662;23.288;2023-06-22T07:33:15;94975.56;;;38.39;26.94
3832;BME280;12460;42.662;23.288;2023-06-22T07:48:21;94980.06;;;39.38;26.98
3832;BME280;12460;42.662;23.288;2023-06-22T08:03:26;94960.66;;;39.08;26.90
3832;BME280;12460;42.662;23.288;2023-06-22T08:18:31;94951.31;;;38.91;27.61
3832;BME280;12460;42.662;23.288;2023-06-22T08:33:34;94948.63;;;39.71;26.76
3832;BME280;12460;42.662;23.288;2023-06-22T08:48:39;94954.16;;;40.65;25.57
3832;BME280;12460;42.662;23.288;2023-06-22T09:03:44;94928.53;;;40.90;25.25
3832;BME280;12460;42.662;23.288;2023-06-22T09:18:59;94934.34;;;40.94;22.79
3832;BME280;12460;42.662;23.288;2023-06-22T09:34:04;94930.19;;;40.81;23.53
3832;BME280;12460;42.662;23.288;2023-06-22T09:49:09;94925.88;;;41.08;23.26
3832;BME280;12460;42.662;23.288;2023-06-22T10:04:13;94915.00;;;41.32;21.61
3832;BME280;12460;42.662;23.288;2023-06-22T10:19:18;94908.44;;;39.90;22.69
3832;BME280;12460;42.662;23.288;2023-06-22T10:34:23;94894.34;;;40.33;22.80
3832;BME280;12460;42.662;23.288;2023-06-22T10:49:28;94885.06;;;40.54;23.37
3832;BME280;12460;42.662;23.288;2023-06-22T11:04:33;94870.13;;;39.90;22.95
3832;BME280;12460;42.662;23.288;2023-06-22T11:19:38;94868.25;;;38.36;24.86
3832;BME280;12460;42.662;23.288;2023-06-22T11:34:41;94855.69;;;35.80;27.14
3832;BME280;12460;42.662;23.288;2023-06-22T11:49:48;94850.66;;;35.40;28.58
3832;BME280;12460;42.662;23.288;2023-06-22T12:04:53;94847.78;;;34.74;30.16
3832;BME280;12460;42.662;23.288;2023-06-22T12:20:00;94867.41;;;34.27;31.96
3832;BME280;12460;42.662;23.288;2023-06-22T12:35:05;94876.44;;;32.45;39.74
3832;BME280;12460;42.662;23.288;2023-06-22T12:50:18;94904.53;;;29.93;47.73
3832;BME280;12460;42.662;23.288;2023-06-22T13:05:23;94931.94;;;29.18;45.99
3832;BME280;12460;42.662;23.288;2023-06-22T13:20:29;94924.50;;;29.11;46.16
3832;BME280;12460;42.662;23.288;2023-06-22T13:35:33;94907.91;;;28.84;45.75
3832;BME280;12460;42.662;23.288;2023-06-22T13:50:39;94898.13;;;28.69;48.10
3832;BME280;12460;42.662;23.288;2023-06-22T14:05:45;94895.66;;;28.58;50.90
3832;BME280;12460;42.662;23.288;2023-06-22T14:20:50;94914.75;;;28.13;52.32
3832;BME280;12460;42.662;23.288;2023-06-22T14:35:53;94933.94;;;27.51;52.53
3832;BME280;12460;42.662;23.288;2023-06-22T14:50:58;94926.97;;;28.10;51.36
3832;BME280;12460;42.662;23.288;2023-06-22T15:06:04;94911.66;;;28.33;50.68
3832;BME280;12460;42.662;23.288;2023-06-22T15:21:08;94874.31;;;28.73;48.92
3832;BME280;12460;42.662;23.288;2023-06-22T15:36:13;94868.72;;;29.44;49.05
3832;BME280;12460;42.662;23.288;2023-06-22T15:51:18;94893.69;;;29.93;46.27
3832;BME280;12460;42.662;23.288;2023-06-22T16:06:23;94903.19;;;29.30;46.74
3832;BME280;12460;42.662;23.288;2023-06-22T19:12:47;94956.72;;;25.52;56.07
3832;BME280;12460;42.662;23.288;2023-06-22T19:27:52;94962.41;;;25.33;55.97
3832;BME280;12460;42.662;23.288;2023-06-22T19:42:58;94949.50;;;25.34;55.67
3832;BME280;12460;42.662;23.288;2023-06-22T19:58:04;94936.31;;;25.09;55.64
3832;BME280;12460;42.662;23.288;2023-06-22T20:13:16;94929.09;;;24.90;56.75
3832;BME280;12460;42.662;23.288;2023-06-22T20:28:25;94912.13;;;24.63;56.68
3832;BME280;12460;42.662;23.288;2023-06-22T20:43:30;94918.28;;;24.38;57.04
3832;BME280;12460;42.662;23.288;2023-06-22T20:58:35;94906.34;;;24.10;56.50
3832;BME280;12460;42.662;23.288;2023-06-22T21:13:40;94910.63;;;23.94;56.08
3832;BME280;12460;42.662;23.288;2023-06-22T21:28:45;94905.59;;;23.77;56.65
3832;BME280;12460;42.662;23.288;2023-06-22T21:43:50;94891.38;;;23.47;57.87
3832;BME280;12460;42.662;23.288;2023-06-22T21:58:56;94893.44;;;23.45;58.29
3832;BME280;12460;42.662;23.288;2023-06-22T22:14:01;94896.25;;;23.29;58.31
3832;BME280;12460;42.662;23.288;2023-06-22T22:29:06;94889.69;;;23.11;58.62
3832;BME280;12460;42.662;23.288;2023-06-22T22:44:11;94876.03;;;22.94;59.04
3832;BME280;12460;42.662;23.288;2023-06-22T22:59:16;94868.22;;;22.81;58.58
3832;BME280;12460;42.662;23.288;2023-06-22T23:14:21;94857.41;;;22.79;58.71
3832;BME280;12460;42.662;23.288;2023-06-22T23:29:26;94864.91;;;22.71;59.26
3832;BME280;12460;42.662;23.288;2023-06-22T23:44:31;94865.88;;;22.62;59.60
3832;BME280;12460;42.662;23.288;2023-06-22T23:59:36;94861.59;;;22.47;59.90
